createdAt,value
2023-05-21T00:01:39.710Z,98895.09
2023-05-21T00:05:05.707Z,98892.38
2023-05-21T00:07:38.184Z,98892.24
2023-05-21T00:10:11.641Z,98889.89
2023-05-21T00:17:29.490Z,98886.66
2023-05-21T00:23:59.822Z,98889.59
2023-05-21T00:26:32.121Z,98890.85
2023-05-21T00:33:40.183Z,98889.77
2023-05-21T00:36:14.417Z,98883.65
2023-05-21T00:39:07.429Z,98879.57
2023-05-21T00:41:40.244Z,98883.73
2023-05-21T00:44:48.813Z,98881.23
2023-05-21T00:55:27.916Z,98881.90
2023-05-21T00:58:00.239Z,98879.54
2023-05-21T01:00:33.767Z,98874.88
2023-05-21T01:03:14.917Z,98871.60
2023-05-21T01:06:14.054Z,98866.16
2023-05-21T01:12:30.966Z,98858.83
2023-05-21T01:15:05.607Z,98856.41
2023-05-21T01:18:00.512Z,98859.41
2023-05-21T01:20:33.224Z,98852.20
2023-05-21T01:23:06.514Z,98845.38
2023-05-21T01:25:39.397Z,98844.21
2023-05-21T01:28:18.253Z,98843.08
2023-05-21T01:35:45.962Z,98838.22
2023-05-21T01:42:50.376Z,98833.84
2023-05-21T01:45:23.863Z,98829.34
2023-05-21T01:48:54.574Z,98825.88
2023-05-21T01:51:27.651Z,98827.61
2023-05-21T01:54:14.404Z,98825.73
2023-05-21T01:56:48.057Z,98819.23
2023-05-21T01:59:22.697Z,98813.16
2023-05-21T02:02:54.070Z,98811.05
2023-05-21T02:05:26.633Z,98814.65
2023-05-21T02:15:35.034Z,98811.98
2023-05-21T02:18:53.852Z,98805.21
2023-05-21T02:21:28.303Z,98808.64
2023-05-21T02:28:16.028Z,98806.98
2023-05-21T02:30:51.012Z,98802.27
2023-05-21T02:34:09.359Z,98800.30
2023-05-21T02:36:44.088Z,98805.42
2023-05-21T02:39:19.220Z,98803.52
2023-05-21T02:41:54.324Z,98802.81
2023-05-21T02:48:50.987Z,98800.91
2023-05-21T02:52:09.888Z,98802.35
2023-05-21T02:59:08.868Z,98797.32
2023-05-21T03:02:08.259Z,98794.36
2023-05-21T03:05:51.819Z,98789.33
2023-05-21T03:12:50.942Z,98783.48
2023-05-21T03:16:16.879Z,98784.23
2023-05-21T03:18:55.357Z,98783.20
2023-05-21T03:21:30.181Z,98784.79
2023-05-21T03:35:51.983Z,98784.90
2023-05-21T03:38:31.490Z,98782.73
2023-05-21T03:41:03.797Z,98777.68
2023-05-21T03:48:18.202Z,98781.40
2023-05-21T03:51:11.397Z,98779.39
2023-05-21T03:58:17.511Z,98781.02
2023-05-21T04:00:53.035Z,98778.98
2023-05-21T04:11:51.530Z,98777.36
2023-05-21T04:14:52.945Z,98778.27
2023-05-21T04:17:27.067Z,98779.17
2023-05-21T04:20:12.228Z,98779.99
2023-05-21T04:23:32.032Z,98780.31
2023-05-21T04:26:12.835Z,98783.79
2023-05-21T04:28:46.121Z,98783.73
2023-05-21T04:31:19.241Z,98783.79
2023-05-21T04:33:59.511Z,98783.20
2023-05-21T04:36:32.144Z,98792.56
2023-05-21T04:39:05.728Z,98786.48
2023-05-21T04:42:11.306Z,98787.60
2023-05-21T04:47:54.008Z,98782.20
2023-05-21T04:53:56.218Z,98777.16
2023-05-21T04:56:35.628Z,98774.34
2023-05-21T04:59:07.899Z,98771.43
2023-05-21T05:01:46.648Z,98770.92
2023-05-21T05:04:19.527Z,98771.60
2023-05-21T05:07:27.024Z,98770.83
2023-05-21T05:10:01.281Z,98765.05
2023-05-21T05:12:54.220Z,98769.23
2023-05-21T05:22:25.312Z,98755.91
2023-05-21T05:24:57.656Z,98759.58
2023-05-21T05:27:38.402Z,98760.92
2023-05-21T05:34:37.496Z,98755.09
2023-05-21T05:41:04.566Z,98754.37
2023-05-21T05:43:36.925Z,98752.98
2023-05-21T05:46:15.577Z,98747.30
2023-05-21T05:48:47.720Z,98743.92
2023-05-21T05:51:23.677Z,98744.13
2023-05-21T05:53:56.670Z,98744.80
2023-05-21T06:00:02.626Z,98743.80
2023-05-21T06:03:03.771Z,98742.96
2023-05-21T06:05:42.611Z,98736.98
2023-05-21T06:08:14.891Z,98736.59
2023-05-21T06:10:47.250Z,98734.59
2023-05-21T06:13:20.191Z,98725.16
2023-05-21T06:15:54.374Z,98728.98
2023-05-21T06:18:33.763Z,98730.00
2023-05-21T06:21:06.223Z,98724.19
2023-05-21T06:31:50.642Z,98726.73
2023-05-21T06:34:22.870Z,98720.12
2023-05-21T06:37:02.186Z,98720.52
2023-05-21T06:39:34.365Z,98725.15
2023-05-21T06:46:24.419Z,98721.29
2023-05-21T06:48:57.458Z,98725.64
2023-05-21T06:52:20.098Z,98727.63
2023-05-21T06:54:52.499Z,98721.61
2023-05-21T06:57:25.059Z,98712.27
2023-05-21T07:04:29.592Z,98699.19
2023-05-21T07:07:04.626Z,98699.88
2023-05-21T07:10:21.912Z,98687.40
2023-05-21T07:17:26.830Z,98673.48
2023-05-21T07:23:57.834Z,98685.60
2023-05-21T07:26:30.011Z,98689.48
2023-05-21T07:29:02.138Z,98691.88
2023-05-21T07:31:42.369Z,98692.56
2023-05-21T07:34:17.462Z,98686.63
2023-05-21T07:40:23.497Z,98677.86
2023-05-21T07:46:29.863Z,98669.66
2023-05-21T07:49:05.671Z,98679.33
2023-05-21T07:51:38.041Z,98672.23
2023-05-21T07:57:24.641Z,98657.29
2023-05-21T08:05:04.062Z,98640.20
2023-05-21T08:12:21.068Z,98624.41
2023-05-21T08:18:49.758Z,98607.08
2023-05-21T08:21:24.015Z,98595.24
2023-05-21T08:31:47.033Z,98594.77
2023-05-21T08:38:45.906Z,98605.52
2023-05-21T08:45:48.430Z,98603.61
2023-05-21T08:48:23.767Z,98605.43
2023-05-21T08:51:41.810Z,98587.05
2023-05-21T08:54:22.392Z,98592.14
2023-05-21T08:56:57.047Z,98590.11
2023-05-21T09:00:21.932Z,98585.14
2023-05-21T09:07:29.311Z,98578.59
2023-05-21T09:11:21.093Z,98579.05
2023-05-21T09:14:04.898Z,98578.01
2023-05-21T09:17:17.598Z,98566.63
2023-05-21T09:20:17.547Z,98556.12
2023-05-21T09:23:34.956Z,98548.98
2023-05-21T09:26:17.141Z,98541.30
2023-05-21T09:28:51.569Z,98535.91
2023-05-21T09:31:47.774Z,98526.06
2023-05-21T09:34:20.348Z,98526.26
2023-05-21T09:37:01.736Z,98515.46
2023-05-21T09:40:21.201Z,98514.23
2023-05-21T09:43:17.104Z,98489.83
2023-05-21T09:46:01.976Z,98495.34
2023-05-21T09:48:41.017Z,98480.01
2023-05-21T09:51:18.366Z,98498.38
2023-05-21T10:00:32.902Z,98500.60
2023-05-21T10:03:12.445Z,98487.98
2023-05-21T10:05:45.513Z,98464.57
2023-05-21T10:08:19.917Z,98467.13
2023-05-21T10:10:53.961Z,98488.88
2023-05-21T10:13:29.620Z,98488.25
2023-05-21T10:16:04.427Z,98481.15
2023-05-21T10:18:39.042Z,98469.08
2023-05-21T10:21:11.516Z,98451.79
2023-05-21T10:23:44.927Z,98460.08
2023-05-21T10:26:17.514Z,98469.20
2023-05-21T10:28:50.186Z,98467.83
2023-05-21T10:31:23.932Z,98457.95
2023-05-21T10:33:56.752Z,98445.67
2023-05-21T10:36:33.681Z,98434.05
2023-05-21T10:39:09.771Z,98454.88
2023-05-21T10:41:59.039Z,98459.60
2023-05-21T10:44:45.853Z,98454.15
2023-05-21T10:47:46.059Z,98464.34
2023-05-21T10:50:29.662Z,98453.33
2023-05-21T10:53:14.738Z,98447.35
2023-05-21T10:56:03.993Z,98441.09
2023-05-21T10:59:14.156Z,98428.45
2023-05-21T11:01:45.352Z,98424.52
2023-05-21T11:04:17.964Z,98429.69
2023-05-21T11:06:51.118Z,98431.42
2023-05-21T11:09:23.210Z,98436.98
2023-05-21T11:11:58.895Z,98432.19
2023-05-21T11:14:39.708Z,98435.49
2023-05-21T11:17:17.611Z,98418.57
2023-05-21T11:19:51.468Z,98414.42
2023-05-21T11:22:42.187Z,98429.02
2023-05-21T11:25:15.861Z,98431.31
2023-05-21T11:27:48.963Z,98431.80
2023-05-21T11:30:21.646Z,98414.16
2023-05-21T11:33:27.397Z,98418.63
2023-05-21T11:39:48.493Z,98407.72
2023-05-21T11:50:05.548Z,98407.70
2023-05-21T11:52:38.208Z,98412.04
2023-05-21T11:55:15.863Z,98413.03
2023-05-21T12:02:20.570Z,98409.95
2023-05-21T12:04:51.769Z,98399.78
2023-05-21T12:07:59.200Z,98388.88
2023-05-21T12:10:39.656Z,98402.80
2023-05-21T12:13:52.931Z,98397.58
2023-05-21T12:16:32.735Z,98379.77
2023-05-21T12:22:57.982Z,98381.27
2023-05-21T12:25:32.142Z,98369.89
2023-05-21T12:28:10.666Z,98365.79
2023-05-21T12:35:02.970Z,98383.77
